In Rescue
 
Open Full Screen Window  High Contrast Mode
Wind Gusting 00 knots
06
July 24, 2024 4:00 PM CDT
Weather Information
Wind Direction
  060 °
Wind Speed
  06 kt (7 mph)
Wind Gust
  00 kt (0 mph)
Altimeter
30.21 in
Visibility
10 SM
Temperature
20° C
68° F
Dewpoint
15° C
59° F
Humidity
73%
1hr Rain Fall
00.00 in.
24hr Rain Fall
00.14 in.
Sky Condition
Clear
VFR

METAR KDYT 242100Z AUTO 06006KT 10SM CLR 20/15 A3021 RMK AO2

FAA Disclaimer: The data displayed is for advisory purposes only and is not to be used for flight planning or operations.